Time;durP1;ratioP1;P1;durP2;ratioP2;P2;SDS_P1;SDS_P2;PMS_P1;PMS_P2;Temp;Humidity;BMP_temperature;BMP_pressure;BME280_temperature;BME280_humidity;BME280_pressure;Samples;Min_cycle;Max_cycle;Signal;HPM_P1;HPM_P2
2021/11/05 00:00:50;;;;;;;6.77;6.17;;;8.10;45.30;;;;;;10305970;28;20310;-68
2021/11/05 00:05:55;;;;;;;6.30;5.80;;;8.10;45.40;;;;;;10311879;28;20283;-69
2021/11/05 00:10:58;;;;;;;6.40;5.90;;;8.00;45.30;;;;;;10309750;28;20232;-69
2021/11/05 00:16:01;;;;;;;6.07;5.57;;;8.00;45.30;;;;;;10310934;28;20226;-68
2021/11/05 00:21:06;;;;;;;6.00;5.50;;;7.90;45.50;;;;;;10307289;28;20220;-69
2021/11/05 00:26:09;;;;;;;5.93;5.53;;;7.80;45.40;;;;;;10303517;28;20770;-68
2021/11/05 00:31:13;;;;;;;5.60;5.20;;;7.80;45.50;;;;;;10320531;28;20330;-69
2021/11/05 00:36:17;;;;;;;5.83;5.43;;;7.70;45.50;;;;;;10302124;28;20238;-69
2021/11/05 00:41:20;;;;;;;6.40;5.90;;;7.70;45.50;;;;;;10303712;28;20807;-69
2021/11/05 00:46:23;;;;;;;6.17;5.57;;;7.70;45.50;;;;;;10299991;28;20231;-69
2021/11/05 00:51:28;;;;;;;5.83;5.33;;;7.70;45.50;;;;;;10302636;28;20329;-69
2021/11/05 00:56:31;;;;;;;6.10;5.60;;;7.70;45.50;;;;;;10308923;28;20235;-69
2021/11/05 01:01:34;;;;;;;6.33;5.83;;;7.70;45.50;;;;;;10311515;28;20236;-69
2021/11/05 01:06:39;;;;;;;6.30;5.80;;;7.70;45.50;;;;;;10305630;28;20255;-69
2021/11/05 01:11:42;;;;;;;5.97;5.50;;;7.70;45.50;;;;;;10322300;28;20288;-69
2021/11/05 01:16:45;;;;;;;5.90;5.50;;;7.70;45.50;;;;;;10313852;28;20233;-69
2021/11/05 01:21:50;;;;;;;5.40;4.90;;;7.80;45.70;;;;;;10309118;28;20624;-68
2021/11/05 01:26:53;;;;;;;5.33;4.93;;;7.70;45.80;;;;;;10312431;28;20676;-69
2021/11/05 01:31:57;;;;;;;5.60;5.20;;;7.80;46.00;;;;;;10308655;28;20238;-69
2021/11/05 01:37:01;;;;;;;5.57;5.17;;;7.80;45.90;;;;;;10314495;28;20233;-69
2021/11/05 01:42:05;;;;;;;5.93;5.53;;;7.90;45.80;;;;;;10311677;28;20636;-69
2021/11/05 01:47:08;;;;;;;6.10;5.67;;;8.00;45.80;;;;;;10312722;28;20238;-69
2021/11/05 01:52:14;;;;;;;6.10;5.67;;;8.00;45.60;;;;;;10313271;28;20243;-69
2021/11/05 01:57:17;;;;;;;6.20;5.70;;;7.90;45.60;;;;;;10304584;28;20606;-69
2021/11/05 02:02:21;;;;;;;7.07;6.30;;;7.90;45.80;;;;;;10313544;28;20247;-69
2021/11/05 02:07:29;;;;;;;6.37;5.77;;;7.80;46.00;;;;;;10307689;28;20235;-69
2021/11/05 02:12:32;;;;;;;6.30;5.80;;;7.80;46.20;;;;;;10311794;28;20227;-69
2021/11/05 02:17:35;;;;;;;6.23;5.73;;;7.80;46.30;;;;;;10303827;28;20250;-69
2021/11/05 02:22:40;;;;;;;6.00;5.50;;;7.80;46.40;;;;;;10308228;28;20220;-69
2021/11/05 02:27:44;;;;;;;6.23;5.73;;;7.80;46.50;;;;;;10307229;28;20242;-69
2021/11/05 02:32:47;;;;;;;5.73;5.23;;;7.80;46.50;;;;;;10307334;28;20229;-69
2021/11/05 02:37:52;;;;;;;6.20;5.70;;;7.70;46.60;;;;;;10313446;28;20234;-69
2021/11/05 02:42:55;;;;;;;6.40;5.80;;;7.80;46.90;;;;;;10305710;28;20253;-69
2021/11/05 02:47:58;;;;;;;6.07;5.60;;;7.80;46.80;;;;;;10309686;28;20237;-69
2021/11/05 02:53:03;;;;;;;6.07;5.60;;;7.90;46.80;;;;;;10307606;28;20228;-69
2021/11/05 02:58:06;;;;;;;5.77;5.27;;;8.00;47.10;;;;;;10308786;28;20219;-69
2021/11/05 03:03:09;;;;;;;5.90;5.40;;;8.00;47.10;;;;;;10309479;28;20231;-69
2021/11/05 03:08:14;;;;;;;5.67;5.27;;;8.10;47.30;;;;;;10310314;28;20234;-69
2021/11/05 03:13:17;;;;;;;5.73;5.23;;;8.20;47.40;;;;;;10312212;28;20238;-69
2021/11/05 03:18:21;;;;;;;5.80;5.40;;;8.40;47.30;;;;;;10303832;28;20245;-69
2021/11/05 03:23:25;;;;;;;5.80;5.30;;;8.40;47.00;;;;;;10299841;28;20226;-69
2021/11/05 03:28:28;;;;;;;5.43;5.03;;;8.50;46.90;;;;;;10297946;28;20751;-71
2021/11/05 03:33:31;;;;;;;5.87;5.37;;;8.70;46.90;;;;;;10300919;28;20234;-69
2021/11/05 03:38:36;;;;;;;6.00;5.50;;;8.80;46.70;;;;;;10295074;28;20227;-71
2021/11/05 03:43:44;;;;;;;6.00;5.50;;;8.80;46.60;;;;;;10311931;28;20227;-69
2021/11/05 03:48:47;;;;;;;6.30;5.80;;;8.80;46.50;;;;;;10310313;28;20231;-69
2021/11/05 03:53:52;;;;;;;6.30;5.83;;;8.80;46.50;;;;;;10305456;28;20553;-69
2021/11/05 03:58:56;;;;;;;6.40;6.00;;;8.90;46.40;;;;;;10311786;28;20231;-69
2021/11/05 04:03:59;;;;;;;5.93;5.43;;;8.90;46.20;;;;;;10306687;28;20594;-69
2021/11/05 04:09:04;;;;;;;6.73;6.13;;;9.00;46.20;;;;;;10303593;28;20220;-69
2021/11/05 04:14:08;;;;;;;7.33;6.73;;;9.00;46.00;;;;;;10314324;28;20237;-69
2021/11/05 04:19:11;;;;;;;6.97;6.47;;;9.00;46.00;;;;;;10294697;28;20250;-71
2021/11/05 04:24:16;;;;;;;6.97;6.37;;;8.90;45.90;;;;;;10308138;28;20237;-72
2021/11/05 04:29:19;;;;;;;7.40;6.80;;;8.90;45.90;;;;;;10311146;28;20726;-69
2021/11/05 04:34:22;;;;;;;7.20;6.60;;;8.80;45.90;;;;;;10309040;28;20235;-72
2021/11/05 04:39:27;;;;;;;8.23;7.43;;;8.80;45.80;;;;;;10311121;28;20265;-70
2021/11/05 04:44:31;;;;;;;8.00;7.33;;;8.70;45.80;;;;;;10310425;28;20228;-69
2021/11/05 04:49:34;;;;;;;8.17;7.47;;;8.70;45.80;;;;;;10304656;28;20230;-70
2021/11/05 04:54:39;;;;;;;9.13;8.33;;;8.70;46.00;;;;;;10307656;28;20232;-69
2021/11/05 04:59:42;;;;;;;9.03;8.27;;;8.60;46.10;;;;;;10306907;28;20230;-70
2021/11/05 05:04:46;;;;;;;8.57;7.77;;;8.60;46.20;;;;;;10324074;28;20306;-71
2021/11/05 05:09:51;;;;;;;8.80;8.10;;;8.60;46.30;;;;;;10315330;28;20221;-69
2021/11/05 05:14:54;;;;;;;8.27;7.57;;;8.60;46.30;;;;;;10307679;28;20237;-69
2021/11/05 05:19:57;;;;;;;8.77;8.07;;;8.60;46.40;;;;;;10311372;28;20230;-69
2021/11/05 05:25:01;;;;;;;8.03;7.33;;;8.60;46.40;;;;;;10311230;28;20230;-69
2021/11/05 05:30:07;;;;;;;9.23;8.07;;;8.60;46.40;;;;;;10310102;28;20233;-69
2021/11/05 05:35:11;;;;;;;8.77;8.07;;;8.70;46.30;;;;;;10315337;28;20230;-69
2021/11/05 05:40:16;;;;;;;9.10;8.30;;;8.70;46.20;;;;;;10307168;28;20220;-69
2021/11/05 05:45:21;;;;;;;8.60;7.90;;;8.70;46.30;;;;;;10316984;28;20231;-69
2021/11/05 05:50:24;;;;;;;7.87;7.27;;;8.70;46.20;;;;;;10309980;28;20700;-69
2021/11/05 05:55:29;;;;;;;8.30;7.60;;;8.70;46.30;;;;;;10308067;28;20231;-69
2021/11/05 06:00:35;;;;;;;7.57;6.97;;;8.70;46.40;;;;;;10301000;28;20231;-69
2021/11/05 06:05:39;;;;;;;9.63;8.73;;;8.70;46.40;;;;;;10303574;28;20233;-69
2021/11/05 06:10:44;;;;;;;8.93;8.03;;;8.70;46.30;;;;;;10304863;28;20243;-69
2021/11/05 06:15:47;;;;;;;9.00;8.30;;;8.80;46.20;;;;;;10317994;28;20226;-69
2021/11/05 06:20:50;;;;;;;7.50;6.87;;;8.80;46.00;;;;;;10309953;28;20239;-69
2021/11/05 06:25:55;;;;;;;8.57;7.87;;;8.80;46.10;;;;;;10311290;28;20227;-69
2021/11/05 06:30:58;;;;;;;8.77;7.90;;;8.70;46.00;;;;;;10307221;28;20238;-69
2021/11/05 06:36:01;;;;;;;9.87;8.90;;;8.70;45.80;;;;;;10307435;28;20230;-69
2021/11/05 06:41:06;;;;;;;10.47;9.57;;;8.70;46.00;;;;;;10307403;28;20226;-69
2021/11/05 06:46:10;;;;;;;9.73;8.90;;;8.70;46.10;;;;;;10307007;28;20219;-69
2021/11/05 06:51:14;;;;;;;9.97;9.07;;;8.60;46.20;;;;;;10303890;28;20604;-69
2021/11/05 06:56:19;;;;;;;9.83;8.83;;;8.60;46.50;;;;;;10314849;28;20592;-69
2021/11/05 07:01:23;;;;;;;8.50;7.80;;;8.70;46.70;;;;;;10306565;28;20227;-69
2021/11/05 07:06:26;;;;;;;11.03;10.03;;;8.70;46.80;;;;;;10308539;28;20222;-69
2021/11/05 07:11:31;;;;;;;10.53;9.63;;;8.80;46.80;;;;;;10308922;28;20864;-71
2021/11/05 07:16:34;;;;;;;17.33;13.80;;;8.90;47.00;;;;;;10301564;28;20239;-69
2021/11/05 07:21:38;;;;;;;12.20;11.00;;;9.00;47.00;;;;;;10300310;28;20231;-69
2021/11/05 07:26:45;;;;;;;14.17;12.80;;;9.00;46.90;;;;;;10303227;28;20231;-69
2021/11/05 07:31:48;;;;;;;11.27;10.07;;;9.10;47.00;;;;;;10303225;28;20228;-71
2021/11/05 07:36:51;;;;;;;10.53;9.63;;;9.20;47.00;;;;;;10312656;28;20243;-69
2021/11/05 07:41:56;;;;;;;10.13;9.13;;;9.20;46.80;;;;;;10312340;28;21127;-69
2021/11/05 07:46:59;;;;;;;10.20;9.30;;;9.30;46.90;;;;;;10313907;28;20222;-71
2021/11/05 07:52:04;;;;;;;10.03;9.13;;;9.40;46.90;;;;;;10296804;28;20734;-72
2021/11/05 07:57:09;;;;;;;9.77;8.97;;;9.50;46.90;;;;;;10303371;28;20608;-69
2021/11/05 08:02:13;;;;;;;10.60;9.70;;;9.50;47.00;;;;;;10299024;28;20790;-69
2021/11/05 08:07:20;;;;;;;11.87;10.70;;;9.60;46.90;;;;;;10307221;28;20223;-71
2021/11/05 08:12:24;;;;;;;9.10;8.40;;;9.60;46.90;;;;;;10298603;28;20256;-71
2021/11/05 08:17:28;;;;;;;9.57;8.77;;;9.70;46.90;;;;;;10303540;28;20730;-69
2021/11/05 08:22:31;;;;;;;9.27;8.40;;;9.70;47.00;;;;;;10301942;28;20231;-69
2021/11/05 08:27:36;;;;;;;9.40;8.60;;;9.80;46.80;;;;;;10300804;28;20256;-69
2021/11/05 08:32:40;;;;;;;8.90;8.13;;;9.90;46.80;;;;;;10292901;28;20234;-69
2021/11/05 08:37:43;;;;;;;10.33;9.43;;;10.00;45.90;;;;;;10294488;28;20230;-69
2021/11/05 08:42:49;;;;;;;10.27;9.37;;;10.00;45.90;;;;;;10294958;28;20234;-69
2021/11/05 08:47:52;;;;;;;10.97;9.90;;;10.00;45.90;;;;;;10306132;28;20231;-69
2021/11/05 08:52:56;;;;;;;10.43;9.47;;;10.10;46.00;;;;;;10296895;28;20699;-70
2021/11/05 08:58:00;;;;;;;9.97;9.17;;;10.10;46.00;;;;;;10309981;28;20235;-69
2021/11/05 09:03:06;;;;;;;10.17;9.27;;;10.20;45.80;;;;;;10287101;28;20219;-69
2021/11/05 09:08:09;;;;;;;10.10;9.20;;;10.30;45.80;;;;;;10298238;28;20289;-69
2021/11/05 09:13:14;;;;;;;10.30;9.30;;;10.30;45.80;;;;;;10308144;28;20227;-69
2021/11/05 09:18:17;;;;;;;9.43;8.47;;;10.40;45.80;;;;;;10316317;28;21658;-71
2021/11/05 09:23:23;;;;;;;9.83;9.03;;;10.50;45.70;;;;;;10312323;28;20230;-71
2021/11/05 09:28:27;;;;;;;9.63;8.47;;;10.50;45.60;;;;;;10322234;28;20250;-69
2021/11/05 09:33:31;;;;;;;8.80;8.00;;;10.60;45.70;;;;;;10307336;28;20242;-72
2021/11/05 09:38:34;;;;;;;8.90;8.10;;;10.60;45.80;;;;;;10311324;28;20242;-69
2021/11/05 09:43:40;;;;;;;8.73;7.93;;;10.70;45.90;;;;;;10304872;28;20322;-72
2021/11/05 09:48:44;;;;;;;7.87;7.27;;;10.80;45.50;;;;;;10307953;28;20241;-70
2021/11/05 09:53:48;;;;;;;8.00;7.30;;;10.80;45.50;;;;;;10306271;28;20715;-72
2021/11/05 09:58:53;;;;;;;7.77;7.17;;;10.90;45.60;;;;;;10308372;28;20238;-69
2021/11/05 10:03:56;;;;;;;7.30;6.70;;;10.90;45.50;;;;;;10306730;28;20226;-69
2021/11/05 10:08:59;;;;;;;7.07;6.47;;;10.90;45.60;;;;;;10315659;28;20961;-72
2021/11/05 10:14:04;;;;;;;6.77;6.27;;;11.00;45.60;;;;;;10305465;28;20234;-70
2021/11/05 10:19:08;;;;;;;6.63;6.10;;;11.10;45.20;;;;;;10307070;28;20566;-69
2021/11/05 10:24:13;;;;;;;6.23;5.73;;;11.20;45.10;;;;;;10309230;28;20226;-69
2021/11/05 10:29:28;;;;;;;6.07;5.57;;;11.20;44.90;;;;;;10308302;28;20604;-69
2021/11/05 10:34:47;;;;;;;5.90;5.40;;;11.30;45.00;;;;;;10302637;28;20231;-69
2021/11/05 10:39:54;;;;;;;5.90;5.07;;;11.30;44.40;;;;;;10314180;28;20608;-69
2021/11/05 10:45:17;;;;;;;5.63;5.13;;;11.40;44.80;;;;;;10300526;28;20224;-69
2021/11/05 10:50:22;;;;;;;5.80;5.30;;;11.40;44.60;;;;;;10322822;28;20240;-69
2021/11/05 10:55:25;;;;;;;4.50;4.20;;;11.50;44.90;;;;;;10293232;28;20228;-69
2021/11/05 11:00:31;;;;;;;4.47;4.17;;;11.50;44.50;;;;;;10300339;28;20223;-69
2021/11/05 11:05:37;;;;;;;4.40;4.10;;;11.50;44.20;;;;;;10305622;28;20235;-69
2021/11/05 11:10:40;;;;;;;4.67;4.37;;;11.50;44.80;;;;;;10297309;28;20254;-69
2021/11/05 11:15:45;;;;;;;4.60;4.30;;;11.60;44.90;;;;;;10301713;28;20224;-71
2021/11/05 11:20:49;;;;;;;4.80;4.40;;;11.70;44.50;;;;;;10310143;28;20242;-69
2021/11/05 11:25:52;;;;;;;4.63;4.23;;;11.80;44.60;;;;;;10303789;28;20235;-71
2021/11/05 11:30:57;;;;;;;4.10;3.77;;;11.80;44.50;;;;;;10316766;28;20234;-69
2021/11/05 11:36:01;;;;;;;4.10;3.70;;;11.90;44.30;;;;;;10304993;28;20238;-69
2021/11/05 11:41:07;;;;;;;5.00;4.60;;;11.90;45.30;;;;;;10273723;28;20231;-69
2021/11/05 11:46:11;;;;;;;4.83;4.43;;;11.90;43.80;;;;;;10289894;28;20734;-69
2021/11/05 11:51:19;;;;;;;4.97;4.57;;;11.90;43.90;;;;;;10301722;28;20235;-69
2021/11/05 11:56:25;;;;;;;5.00;4.60;;;11.90;43.90;;;;;;10306573;28;20602;-69
2021/11/05 12:01:32;;;;;;;3.93;3.63;;;12.00;44.20;;;;;;10303222;28;20242;-69
2021/11/05 12:07:00;;;;;;;4.57;4.20;;;12.00;43.90;;;;;;10299505;28;20310;-69
2021/11/05 12:12:39;;;;;;;4.00;3.70;;;12.00;43.10;;;;;;10274060;28;20235;-70
2021/11/05 12:18:14;;;;;;;4.20;3.90;;;12.00;43.10;;;;;;10293170;28;20239;-69
2021/11/05 12:23:22;;;;;;;4.70;4.10;;;12.00;42.90;;;;;;10290501;28;20229;-69
2021/11/05 12:28:27;;;;;;;4.30;4.00;;;12.00;43.50;;;;;;10305253;28;20231;-69
2021/11/05 12:33:32;;;;;;;4.47;4.17;;;12.00;43.80;;;;;;10304041;28;20261;-69
2021/11/05 12:39:02;;;;;;;4.43;4.03;;;12.00;43.50;;;;;;10317451;28;20247;-69
2021/11/05 12:44:14;;;;;;;4.10;3.80;;;12.00;43.20;;;;;;10304333;28;20231;-69
2021/11/05 12:49:18;;;;;;;4.00;3.70;;;12.00;42.90;;;;;;10313816;28;20224;-69
2021/11/05 12:54:24;;;;;;;4.03;3.73;;;12.00;43.40;;;;;;10316418;28;20240;-69
2021/11/05 12:59:31;;;;;;;4.30;3.90;;;12.00;43.20;;;;;;10313045;28;20840;-69
2021/11/05 13:04:40;;;;;;;4.07;3.77;;;12.00;43.60;;;;;;10314934;28;20288;-68
2021/11/05 13:09:45;;;;;;;3.83;3.53;;;12.00;43.80;;;;;;10313889;28;20231;-69
2021/11/05 13:14:51;;;;;;;3.47;3.20;;;12.00;43.50;;;;;;10300689;28;20246;-69
2021/11/05 13:19:57;;;;;;;3.33;3.03;;;12.10;43.50;;;;;;10309843;28;20325;-69
2021/11/05 13:25:23;;;;;;;4.37;3.53;;;12.10;43.60;;;;;;10306743;28;20234;-69
2021/11/05 13:30:28;;;;;;;4.60;4.20;;;12.00;42.70;;;;;;10313459;28;20237;-71
2021/11/05 13:35:31;;;;;;;3.97;3.67;;;12.00;43.60;;;;;;10308874;28;20235;-69
2021/11/05 13:40:44;;;;;;;9.20;8.27;;;12.00;43.70;;;;;;10303084;28;20598;-69
2021/11/05 13:45:49;;;;;;;5.00;4.50;;;12.00;43.00;;;;;;10304631;28;20246;-71
2021/11/05 13:51:03;;;;;;;4.20;3.90;;;12.10;43.30;;;;;;10321289;28;20223;-69
2021/11/05 13:56:16;;;;;;;3.77;3.37;;;12.10;43.40;;;;;;10309758;28;20613;-71
2021/11/05 14:01:22;;;;;;;3.47;3.20;;;12.20;43.10;;;;;;10308940;28;20254;-67
2021/11/05 14:06:25;;;;;;;3.90;3.60;;;12.20;43.60;;;;;;10310420;28;20232;-69
2021/11/05 14:11:32;;;;;;;3.80;3.50;;;12.30;43.80;;;;;;10301982;28;20242;-69
2021/11/05 14:16:44;;;;;;;3.20;2.97;;;12.30;43.10;;;;;;10314784;28;20260;-69
2021/11/05 14:21:58;;;;;;;3.47;3.17;;;12.30;42.70;;;;;;10302847;28;20228;-69
2021/11/05 14:27:10;;;;;;;3.17;2.97;;;12.40;42.60;;;;;;10306002;28;20223;-72
2021/11/05 14:32:14;;;;;;;3.73;2.97;;;12.40;42.10;;;;;;10314254;28;20241;-69
2021/11/05 14:37:19;;;;;;;3.40;3.20;;;12.50;43.00;;;;;;10305596;28;20314;-69
2021/11/05 14:42:27;;;;;;;3.73;3.43;;;12.50;42.90;;;;;;10291809;28;20242;-69
2021/11/05 14:47:41;;;;;;;3.23;2.93;;;12.50;42.50;;;;;;10296720;28;20744;-69
2021/11/05 14:52:53;;;;;;;3.10;2.90;;;12.50;42.10;;;;;;10286993;28;20231;-69
2021/11/05 14:57:58;;;;;;;3.00;2.70;;;12.50;42.10;;;;;;10283769;28;20241;-69
2021/11/05 15:03:01;;;;;;;2.77;2.57;;;12.50;42.40;;;;;;10292337;28;20234;-69
2021/11/05 15:08:06;;;;;;;3.10;2.70;;;12.50;42.60;;;;;;10292541;28;20220;-69
2021/11/05 15:13:14;;;;;;;3.00;2.70;;;12.50;42.50;;;;;;10300146;28;20230;-70
2021/11/05 15:18:19;;;;;;;3.10;2.90;;;12.50;42.10;;;;;;10303341;28;20242;-70
2021/11/05 15:23:25;;;;;;;3.07;2.87;;;12.50;42.70;;;;;;10308789;28;20235;-70
2021/11/05 15:28:31;;;;;;;3.43;3.23;;;12.50;42.80;;;;;;10307087;28;20283;-70
2021/11/05 15:33:34;;;;;;;3.53;3.30;;;12.50;42.90;;;;;;10291361;28;20228;-71
2021/11/05 15:38:38;;;;;;;3.47;3.17;;;12.50;43.20;;;;;;10292166;28;21727;-71
2021/11/05 15:43:46;;;;;;;4.27;3.97;;;12.50;43.40;;;;;;10286198;28;20234;-70
2021/11/05 15:48:51;;;;;;;4.03;3.73;;;12.60;43.10;;;;;;10294058;28;20512;-70
2021/11/05 15:53:55;;;;;;;5.00;4.60;;;12.60;43.30;;;;;;10290119;28;20222;-70
2021/11/05 15:58:59;;;;;;;4.97;4.37;;;12.60;42.90;;;;;;10293697;28;20313;-71
2021/11/05 16:04:04;;;;;;;4.30;3.50;;;12.50;43.00;;;;;;10282762;28;20231;-72
2021/11/05 16:09:07;;;;;;;3.03;2.73;;;12.50;43.00;;;;;;10286569;28;20358;-71
2021/11/05 16:14:18;;;;;;;3.00;2.80;;;12.50;43.10;;;;;;10283674;28;20233;-74
2021/11/05 16:19:22;;;;;;;2.80;2.60;;;12.50;43.00;;;;;;10283721;28;20230;-70
2021/11/05 16:24:25;;;;;;;3.13;2.80;;;12.50;43.20;;;;;;10286664;28;20259;-71
2021/11/05 16:29:31;;;;;;;6.23;4.83;;;12.50;43.10;;;;;;10295459;28;20242;-71
2021/11/05 16:34:34;;;;;;;7.60;6.97;;;12.50;43.10;;;;;;10288483;28;20669;-74
2021/11/05 16:39:38;;;;;;;11.17;10.07;;;12.40;43.30;;;;;;10288415;28;20242;-74
2021/11/05 16:44:43;;;;;;;11.17;10.17;;;12.40;43.40;;;;;;10291584;28;20610;-74
2021/11/05 16:49:48;;;;;;;10.30;9.40;;;12.50;43.40;;;;;;10290560;28;20235;-74
2021/11/05 16:54:51;;;;;;;12.30;11.20;;;12.40;43.30;;;;;;10287237;28;20280;-74
2021/11/05 16:59:56;;;;;;;12.30;11.17;;;12.40;43.20;;;;;;10293254;28;20238;-74
2021/11/05 17:04:59;;;;;;;9.53;8.73;;;12.40;43.20;;;;;;10287088;28;20238;-74
2021/11/05 17:10:03;;;;;;;9.00;7.87;;;12.30;43.30;;;;;;10287972;28;20231;-74
2021/11/05 17:15:10;;;;;;;8.90;8.00;;;12.30;43.40;;;;;;10287646;28;20227;-72
2021/11/05 17:20:16;;;;;;;9.83;7.57;;;12.30;43.40;;;;;;10284403;28;20228;-72
2021/11/05 17:25:20;;;;;;;6.97;6.30;;;12.30;43.60;;;;;;10284683;28;20247;-72
2021/11/05 17:30:26;;;;;;;5.97;5.43;;;12.30;43.40;;;;;;10289012;28;20235;-72
2021/11/05 17:35:29;;;;;;;5.70;5.20;;;12.30;43.40;;;;;;10289370;28;20227;-72
2021/11/05 17:40:34;;;;;;;5.77;5.27;;;12.20;43.50;;;;;;10314234;28;20764;-72
2021/11/05 17:45:40;;;;;;;5.77;5.30;;;12.20;43.40;;;;;;10309756;28;20231;-72
2021/11/05 17:50:44;;;;;;;4.70;4.20;;;12.20;43.30;;;;;;10314333;28;20230;-71
2021/11/05 17:55:47;;;;;;;4.70;4.30;;;12.20;43.40;;;;;;10316804;28;20566;-72
2021/11/05 18:00:52;;;;;;;4.50;4.10;;;12.20;43.20;;;;;;10308813;28;20230;-72
2021/11/05 18:05:55;;;;;;;3.17;2.97;;;12.10;43.20;;;;;;10317041;28;20230;-72
2021/11/05 18:11:01;;;;;;;7.10;6.50;;;12.10;43.20;;;;;;10310300;28;20242;-72
2021/11/05 18:16:06;;;;;;;4.73;4.43;;;12.00;43.10;;;;;;10296961;28;20715;-72
2021/11/05 18:21:09;;;;;;;4.97;4.57;;;12.00;43.10;;;;;;10303919;28;20706;-72
2021/11/05 18:26:12;;;;;;;5.47;5.00;;;12.00;43.20;;;;;;10300953;28;20582;-70
2021/11/05 18:31:17;;;;;;;6.43;5.93;;;11.90;43.10;;;;;;10301507;28;20250;-71
2021/11/05 18:36:20;;;;;;;6.70;6.00;;;11.80;42.80;;;;;;10297625;28;20261;-72
2021/11/05 18:41:24;;;;;;;7.23;6.63;;;11.80;43.00;;;;;;10307650;28;20231;-72
2021/11/05 18:46:29;;;;;;;8.10;7.40;;;11.70;43.20;;;;;;10305535;28;20582;-72
2021/11/05 18:51:32;;;;;;;9.20;8.50;;;11.60;43.40;;;;;;10303351;28;20227;-71
2021/11/05 18:56:35;;;;;;;13.73;12.63;;;11.60;43.40;;;;;;10312111;28;20259;-72
2021/11/05 19:01:40;;;;;;;10.13;9.20;;;11.50;44.30;;;;;;10314023;28;20227;-72
2021/11/05 19:06:45;;;;;;;9.30;8.50;;;11.50;43.80;;;;;;10310760;28;20226;-72
2021/11/05 19:11:49;;;;;;;7.43;6.83;;;11.50;43.70;;;;;;10310116;28;20232;-72
2021/11/05 19:16:56;;;;;;;7.67;6.97;;;11.40;43.60;;;;;;10304088;28;20243;-72
2021/11/05 19:22:01;;;;;;;6.20;5.70;;;11.40;43.70;;;;;;10301914;28;20799;-71
2021/11/05 19:27:04;;;;;;;5.10;4.70;;;11.40;43.60;;;;;;10297476;28;21179;-72
2021/11/05 19:32:10;;;;;;;5.40;5.00;;;11.40;43.40;;;;;;10297712;28;20244;-72
2021/11/05 19:37:13;;;;;;;4.53;4.23;;;11.40;43.30;;;;;;10297779;28;20253;-72
2021/11/05 19:42:17;;;;;;;5.00;4.60;;;11.40;43.10;;;;;;10292766;28;20235;-72
2021/11/05 19:47:21;;;;;;;4.97;4.57;;;11.30;43.00;;;;;;10288832;28;20238;-72
2021/11/05 19:52:30;;;;;;;3.80;3.50;;;11.30;42.90;;;;;;10275577;28;20261;-72
2021/11/05 19:57:34;;;;;;;4.70;4.40;;;11.30;42.90;;;;;;10271207;28;20846;-71
2021/11/05 20:02:39;;;;;;;4.80;4.40;;;11.20;42.80;;;;;;10281990;28;20440;-72
2021/11/05 20:07:42;;;;;;;5.63;5.13;;;11.20;42.60;;;;;;10284714;28;20234;-72
2021/11/05 20:12:47;;;;;;;14.47;13.07;;;11.00;42.60;;;;;;10287957;28;20239;-72
2021/11/05 20:17:51;;;;;;;6.83;6.13;;;11.10;42.60;;;;;;10266048;28;20243;-72
2021/11/05 20:22:54;;;;;;;5.53;5.03;;;11.00;42.70;;;;;;10280247;28;20235;-72
2021/11/05 20:27:58;;;;;;;5.63;5.23;;;10.90;42.90;;;;;;10283697;28;20234;-71
2021/11/05 20:33:04;;;;;;;6.83;6.23;;;10.90;43.00;;;;;;10290924;28;20226;-71
2021/11/05 20:38:10;;;;;;;9.37;8.47;;;10.90;43.00;;;;;;10243910;28;20234;-71
2021/11/05 20:43:15;;;;;;;8.80;7.97;;;10.80;42.90;;;;;;10248778;28;20228;-71
2021/11/05 20:48:19;;;;;;;7.80;7.20;;;10.70;42.90;;;;;;10252069;28;20312;-73
2021/11/05 20:53:23;;;;;;;6.00;5.50;;;10.70;43.30;;;;;;10250236;28;20294;-71
2021/11/05 20:58:30;;;;;;;8.10;7.50;;;10.60;43.30;;;;;;10283938;28;20596;-71
2021/11/05 21:03:35;;;;;;;7.20;6.63;;;10.60;43.50;;;;;;10291556;28;20231;-71
2021/11/05 21:08:40;;;;;;;8.80;8.00;;;10.60;43.60;;;;;;10288953;28;20234;-71
2021/11/05 21:13:43;;;;;;;6.87;6.27;;;10.50;43.40;;;;;;10290011;28;20239;-71
2021/11/05 21:18:48;;;;;;;8.30;7.60;;;10.50;43.40;;;;;;10284809;28;20238;-72
2021/11/05 21:23:52;;;;;;;8.30;7.60;;;10.50;43.60;;;;;;10298036;28;20729;-71
2021/11/05 21:28:55;;;;;;;8.00;7.27;;;10.40;43.60;;;;;;10302145;28;21063;-71
2021/11/05 21:34:00;;;;;;;7.90;7.20;;;10.40;43.70;;;;;;10301269;28;20620;-71
2021/11/05 21:39:05;;;;;;;7.20;6.30;;;10.40;43.80;;;;;;10298006;28;20254;-72
2021/11/05 21:44:08;;;;;;;7.03;6.33;;;10.40;43.80;;;;;;10299395;28;20499;-71
2021/11/05 21:49:13;;;;;;;6.20;5.70;;;10.40;43.70;;;;;;10296251;28;20357;-71
2021/11/05 21:54:16;;;;;;;5.60;5.10;;;10.40;43.70;;;;;;10295183;28;20223;-71
2021/11/05 21:59:20;;;;;;;6.67;5.53;;;10.40;43.60;;;;;;10296726;28;20227;-71
2021/11/05 22:04:25;;;;;;;6.50;4.90;;;10.30;43.50;;;;;;10303497;28;20239;-71
2021/11/05 22:09:29;;;;;;;6.77;5.70;;;10.30;43.70;;;;;;10306024;28;20223;-74
2021/11/05 22:14:33;;;;;;;5.60;5.10;;;10.20;43.50;;;;;;10310703;28;20234;-74
2021/11/05 22:19:38;;;;;;;4.87;4.47;;;10.20;43.70;;;;;;10309687;28;20752;-74
2021/11/05 22:24:42;;;;;;;6.37;5.80;;;10.10;43.80;;;;;;10308490;28;20219;-73
2021/11/05 22:29:45;;;;;;;6.40;5.90;;;10.10;43.90;;;;;;10305075;28;20238;-73
2021/11/05 22:34:49;;;;;;;6.00;5.50;;;10.10;43.90;;;;;;10297684;28;20334;-72
2021/11/05 22:39:53;;;;;;;6.17;5.67;;;10.10;44.00;;;;;;10302399;28;20605;-73
2021/11/05 22:44:56;;;;;;;7.13;6.50;;;10.20;44.10;;;;;;10308076;28;20232;-73
2021/11/05 22:50:01;;;;;;;7.80;7.10;;;10.20;44.10;;;;;;10299080;28;20219;-73
2021/11/05 22:55:06;;;;;;;7.97;7.13;;;10.30;44.10;;;;;;10313003;28;20882;-73
2021/11/05 23:00:12;;;;;;;8.57;7.77;;;10.30;43.90;;;;;;10301926;28;20230;-73
2021/11/05 23:05:16;;;;;;;8.50;7.70;;;10.20;43.90;;;;;;10305041;28;20235;-71
2021/11/05 23:10:21;;;;;;;8.27;7.53;;;10.10;43.70;;;;;;10304624;28;20222;-75
2021/11/05 23:15:30;;;;;;;8.53;7.27;;;10.10;43.70;;;;;;10302537;28;20245;-74
2021/11/05 23:20:34;;;;;;;8.00;7.27;;;10.00;43.70;;;;;;10300678;28;20677;-73
2021/11/05 23:25:38;;;;;;;7.73;7.03;;;9.90;44.80;;;;;;10305975;28;20276;-69
2021/11/05 23:30:41;;;;;;;8.20;7.40;;;9.90;44.90;;;;;;10301417;28;20231;-69
2021/11/05 23:35:46;;;;;;;7.93;7.23;;;9.80;45.00;;;;;;10306353;28;20226;-75
2021/11/05 23:40:49;;;;;;;8.47;7.63;;;9.80;45.40;;;;;;10301292;28;20230;-76
2021/11/05 23:45:53;;;;;;;8.40;7.50;;;9.80;45.50;;;;;;10301253;28;20396;-73
2021/11/05 23:50:57;;;;;;;7.80;6.83;;;9.80;45.50;;;;;;10298363;28;20235;-71
2021/11/05 23:56:01;;;;;;;8.23;7.43;;;9.90;45.60;;;;;;10296583;28;20238;-71
